Time;durP1;ratioP1;P1;durP2;ratioP2;P2;SDS_P1;SDS_P2;PMS_P1;PMS_P2;Temp;Humidity;BMP_temperature;BMP_pressure;BME280_temperature;BME280_humidity;BME280_pressure;Samples;Min_cycle;Max_cycle;Signal;HPM_P1;HPM_P2
2024/04/10 00:00:15;;;;;;;;;;;17.20;35.10;18.80;99006.00;;;;5397392;26;2225;-39
2024/04/10 00:02:45;;;;;;;;;;;17.10;35.30;18.80;99016.00;;;;5396151;26;2377;-40
2024/04/10 00:05:13;;;;;;;;;;;17.10;35.20;18.80;99008.00;;;;5398023;26;2332;-39
2024/04/10 00:07:43;;;;;;;;;;;17.20;35.00;18.80;99013.00;;;;5394878;26;2338;-39
2024/04/10 00:10:10;;;;;;;;;;;17.20;34.80;18.80;99016.00;;;;5402958;26;2235;-39
2024/04/10 00:12:40;;;;;;;;;;;17.20;34.60;18.80;99022.00;;;;5393420;26;2200;-39
2024/04/10 00:15:08;;;;;;;;;;;17.20;34.60;18.90;99026.00;;;;5394706;26;2312;-39
2024/04/10 00:17:40;;;;;;;;;;;17.20;34.40;18.80;99029.00;;;;5394823;26;2327;-39
2024/04/10 00:20:08;;;;;;;;;;;17.20;34.30;18.90;99026.00;;;;5394982;26;2226;-39
2024/04/10 00:22:38;;;;;;;;;;;17.20;34.20;18.80;99015.00;;;;5401204;26;2031;-39
2024/04/10 00:25:06;;;;;;;;;;;17.20;34.30;18.80;99031.00;;;;5396306;26;2357;-39
2024/04/10 00:27:36;;;;;;;;;;;17.20;34.70;18.80;99025.00;;;;5388899;26;2003;-40
2024/04/10 00:30:04;;;;;;;;;;;17.10;35.00;18.80;99031.00;;;;5394787;26;2303;-39
2024/04/10 00:32:34;;;;;;;;;;;17.10;35.10;18.80;99031.00;;;;5389661;26;1960;-39
2024/04/10 00:35:05;;;;;;;;;;;17.10;34.80;18.80;99032.00;;;;5393297;26;2235;-39
2024/04/10 00:37:35;;;;;;;;;;;17.20;34.80;18.80;99036.00;;;;5396045;26;2229;-40
2024/04/10 00:40:03;;;;;;;;;;;17.20;34.60;18.80;99027.00;;;;5396860;26;2044;-39
2024/04/10 00:42:32;;;;;;;;;;;17.20;34.50;18.80;99030.00;;;;5389685;26;2174;-39
2024/04/10 00:45:00;;;;;;;;;;;17.20;34.40;18.80;99028.00;;;;5392931;26;2108;-39
2024/04/10 00:47:30;;;;;;;;;;;17.20;34.30;18.80;99030.00;;;;5398466;26;2316;-39
2024/04/10 00:49:58;;;;;;;;;;;17.20;34.10;18.90;99035.00;;;;5389061;26;1956;-39
2024/04/10 00:52:30;;;;;;;;;;;17.20;34.10;18.80;99030.00;;;;5400454;26;1996;-39
2024/04/10 00:54:58;;;;;;;;;;;17.20;34.60;18.80;99029.00;;;;5391497;26;2221;-39
2024/04/10 00:57:27;;;;;;;;;;;17.10;34.90;18.70;99021.00;;;;5406537;26;2232;-39
2024/04/10 00:59:55;;;;;;;;;;;17.10;35.10;18.70;99012.00;;;;5397836;26;2227;-40
2024/04/10 01:02:25;;;;;;;;;;;17.00;35.40;18.60;99015.00;;;;5391641;26;2005;-39
2024/04/10 01:04:52;;;;;;;;;;;17.00;35.70;18.60;99021.00;;;;5410237;26;1951;-39
2024/04/10 01:07:22;;;;;;;;;;;17.00;36.00;18.60;99020.00;;;;5411612;26;2337;-40
2024/04/10 01:09:52;;;;;;;;;;;17.00;35.50;18.60;99027.00;;;;5397494;26;2016;-39
2024/04/10 01:12:24;;;;;;;;;;;17.00;35.30;18.60;99035.00;;;;5411902;26;2247;-39
2024/04/10 01:14:54;;;;;;;;;;;17.00;35.10;18.70;99044.00;;;;5408669;26;2250;-39
2024/04/10 01:17:21;;;;;;;;;;;17.10;35.00;18.70;99053.00;;;;5381771;26;2303;-40
2024/04/10 01:19:51;;;;;;;;;;;17.10;34.80;18.70;99050.00;;;;5394955;26;2056;-39
2024/04/10 01:22:19;;;;;;;;;;;17.10;34.70;18.70;99043.00;;;;5408245;26;1995;-39
2024/04/10 01:24:51;;;;;;;;;;;17.10;34.50;18.80;99058.00;;;;5409704;26;3094;-38
2024/04/10 01:27:18;;;;;;;;;;;17.20;34.40;18.70;99052.00;;;;5399885;26;2565;-40
2024/04/10 01:29:48;;;;;;;;;;;17.10;34.70;18.70;99060.00;;;;5397534;26;2265;-39
2024/04/10 01:32:16;;;;;;;;;;;17.10;35.10;18.60;99057.00;;;;5404396;26;3371;-39
2024/04/10 01:34:46;;;;;;;;;;;17.00;35.30;18.60;99047.00;;;;5422202;26;2423;-39
2024/04/10 01:37:13;;;;;;;;;;;17.00;35.10;18.70;99049.00;;;;5416297;26;2288;-40
2024/04/10 01:39:43;;;;;;;;;;;17.00;34.90;18.70;99052.00;;;;5423720;26;3350;-39
2024/04/10 01:42:13;;;;;;;;;;;17.00;34.80;18.70;99041.00;;;;5432257;26;2463;-39
2024/04/10 01:44:43;;;;;;;;;;;17.00;34.60;18.70;99053.00;;;;5431484;26;2252;-39
2024/04/10 01:47:10;;;;;;;;;;;17.10;34.60;18.70;99054.00;;;;5425162;26;2409;-39
2024/04/10 01:49:40;;;;;;;;;;;17.10;34.50;18.70;99066.00;;;;5429504;26;1534;-40
2024/04/10 01:52:07;;;;;;;;;;;17.10;34.40;18.70;99070.00;;;;5429837;26;2368;-39
2024/04/10 01:54:37;;;;;;;;;;;17.10;34.30;18.70;99068.00;;;;5437613;26;2060;-39
2024/04/10 01:57:05;;;;;;;;;;;17.10;34.30;18.70;99060.00;;;;5414179;26;2460;-40
2024/04/10 01:59:38;;;;;;;;;;;17.10;35.00;18.60;99058.00;;;;5418947;26;2382;-39
2024/04/10 02:02:05;;;;;;;;;;;17.00;35.30;18.60;99067.00;;;;5428627;26;2192;-40
2024/04/10 02:04:35;;;;;;;;;;;17.00;35.20;18.60;99086.00;;;;5429984;26;2326;-40
2024/04/10 02:07:04;;;;;;;;;;;17.00;35.10;18.70;99067.00;;;;5412683;26;3388;-40
2024/04/10 02:09:34;;;;;;;;;;;17.00;35.00;18.70;99069.00;;;;5415843;26;2332;-39
2024/04/10 02:12:02;;;;;;;;;;;17.00;34.70;18.60;99072.00;;;;5423689;26;2268;-40
2024/04/10 02:14:35;;;;;;;;;;;17.00;34.60;18.70;99065.00;;;;5424608;26;2385;-40
2024/04/10 02:17:05;;;;;;;;;;;17.10;34.50;18.70;99077.00;;;;5422062;26;2325;-39
2024/04/10 02:19:35;;;;;;;;;;;17.10;34.40;18.70;99093.00;;;;5429137;26;2218;-39
2024/04/10 02:22:03;;;;;;;;;;;17.10;34.30;18.70;99085.00;;;;5423037;26;2401;-40
2024/04/10 02:24:33;;;;;;;;;;;17.10;34.20;18.70;99089.00;;;;5418702;26;2079;-39
2024/04/10 02:27:00;;;;;;;;;;;17.10;34.80;18.60;99094.00;;;;5419890;26;2247;-39
2024/04/10 02:29:31;;;;;;;;;;;17.00;34.90;18.60;99085.00;;;;5428286;26;2042;-39
2024/04/10 02:31:58;;;;;;;;;;;17.00;35.20;18.60;99091.00;;;;5431416;26;1929;-40
2024/04/10 02:34:31;;;;;;;;;;;17.00;35.10;18.60;99112.00;;;;5423668;26;2378;-40
2024/04/10 02:36:58;;;;;;;;;;;17.00;34.70;18.70;99114.00;;;;5424518;26;2214;-40
2024/04/10 02:39:28;;;;;;;;;;;17.00;34.60;18.70;99113.00;;;;5421066;26;2078;-39
2024/04/10 02:41:55;;;;;;;;;;;17.00;34.40;18.70;99106.00;;;;5414312;26;1999;-40
2024/04/10 02:44:25;;;;;;;;;;;17.00;34.30;18.70;99115.00;;;;5422118;26;2216;-39
2024/04/10 02:46:53;;;;;;;;;;;17.00;34.20;18.70;99114.00;;;;5421943;26;2193;-39
2024/04/10 02:49:23;;;;;;;;;;;17.00;34.20;18.70;99123.00;;;;5423700;26;2191;-39
2024/04/10 02:51:53;;;;;;;;;;;17.10;34.10;18.60;99119.00;;;;5420475;26;2481;-39
2024/04/10 02:54:23;;;;;;;;;;;17.00;34.60;18.60;99132.00;;;;5420371;26;2197;-40
2024/04/10 02:56:50;;;;;;;;;;;17.00;35.10;18.50;99139.00;;;;5413629;26;1993;-40
2024/04/10 02:59:20;;;;;;;;;;;16.90;35.30;18.50;99136.00;;;;5424233;26;2209;-40
2024/04/10 03:01:48;;;;;;;;;;;16.80;35.70;18.50;99143.00;;;;5419070;26;1970;-39
2024/04/10 03:04:18;;;;;;;;;;;16.80;36.00;18.40;99142.00;;;;5422443;26;2351;-40
2024/04/10 03:06:47;;;;;;;;;;;16.80;36.20;18.40;99143.00;;;;5420911;26;2425;-39
2024/04/10 03:09:21;;;;;;;;;;;16.80;35.90;18.50;99146.00;;;;5417203;26;2087;-38
2024/04/10 03:11:49;;;;;;;;;;;16.80;35.50;18.50;99149.00;;;;5424978;26;2130;-39
2024/04/10 03:14:20;;;;;;;;;;;16.90;35.40;18.50;99159.00;;;;5419044;26;2299;-39
2024/04/10 03:16:47;;;;;;;;;;;16.90;35.10;18.50;99161.00;;;;5418056;26;2184;-39
2024/04/10 03:19:19;;;;;;;;;;;16.90;35.00;18.60;99162.00;;;;5418320;26;2184;-39
2024/04/10 03:21:46;;;;;;;;;;;17.00;34.90;18.60;99169.00;;;;5428095;26;3033;-39
2024/04/10 03:24:17;;;;;;;;;;;17.00;34.70;18.60;99171.00;;;;5410041;26;2252;-40
2024/04/10 03:26:47;;;;;;;;;;;17.00;34.60;18.60;99179.00;;;;5417410;26;2227;-39
2024/04/10 03:29:18;;;;;;;;;;;17.00;34.70;18.50;99189.00;;;;5425569;26;2229;-40
2024/04/10 03:31:45;;;;;;;;;;;16.90;35.00;18.50;99168.00;;;;5412430;26;2356;-39
2024/04/10 03:34:15;;;;;;;;;;;16.90;35.30;18.50;99187.00;;;;5412514;26;2305;-39
2024/04/10 03:36:43;;;;;;;;;;;16.90;35.30;18.50;99195.00;;;;5413217;26;2179;-39
2024/04/10 03:39:14;;;;;;;;;;;16.90;35.00;18.60;99199.00;;;;5409944;26;2476;-39
2024/04/10 03:41:41;;;;;;;;;;;16.90;34.90;18.60;99202.00;;;;5410511;26;2194;-39
2024/04/10 03:44:14;;;;;;;;;;;16.90;35.30;18.60;99201.00;;;;5411851;26;2187;-39
2024/04/10 03:46:44;;;;;;;;;;;17.00;34.70;18.60;99208.00;;;;5397180;26;2239;-40
2024/04/10 03:49:14;;;;;;;;;;;17.00;34.60;18.60;99196.00;;;;5408937;26;2349;-40
2024/04/10 03:51:41;;;;;;;;;;;17.00;34.40;18.60;99195.00;;;;5403324;26;2004;-39
2024/04/10 03:54:11;;;;;;;;;;;17.00;34.30;18.60;99206.00;;;;5404906;26;2434;-40
2024/04/10 03:56:38;;;;;;;;;;;17.00;34.20;18.60;99198.00;;;;5397626;26;2378;-39
2024/04/10 03:59:08;;;;;;;;;;;17.00;34.50;18.50;99202.00;;;;5411071;26;2199;-39
2024/04/10 04:01:38;;;;;;;;;;;16.90;34.80;18.50;99208.00;;;;5403276;26;1998;-40
2024/04/10 04:04:08;;;;;;;;;;;16.90;35.10;18.60;99202.00;;;;5402513;26;2225;-39
2024/04/10 04:06:35;;;;;;;;;;;16.90;35.10;18.60;99199.00;;;;5407341;26;2241;-40
2024/04/10 04:09:07;;;;;;;;;;;16.90;34.70;18.50;99212.00;;;;5407610;26;2181;-39
2024/04/10 04:11:35;;;;;;;;;;;16.90;34.60;18.50;99219.00;;;;5410416;26;2057;-39
2024/04/10 04:14:05;;;;;;;;;;;16.90;34.40;18.50;99232.00;;;;5406574;26;2167;-40
2024/04/10 04:16:34;;;;;;;;;;;17.00;34.40;18.60;99235.00;;;;5416466;26;3057;-39
2024/04/10 04:19:06;;;;;;;;;;;17.00;34.30;18.60;99237.00;;;;5407099;26;2233;-40
2024/04/10 04:21:34;;;;;;;;;;;17.00;34.20;18.60;99242.00;;;;5398710;26;2371;-39
2024/04/10 04:24:03;;;;;;;;;;;17.00;34.10;18.60;99247.00;;;;5412440;26;2425;-40
2024/04/10 04:26:31;;;;;;;;;;;17.00;34.10;18.50;99239.00;;;;5407518;26;2314;-39
2024/04/10 04:29:01;;;;;;;;;;;16.90;34.40;18.50;99249.00;;;;5418365;26;2303;-39
2024/04/10 04:31:28;;;;;;;;;;;16.90;34.80;18.50;99249.00;;;;5398317;26;2317;-39
2024/04/10 04:33:59;;;;;;;;;;;16.80;35.00;18.50;99254.00;;;;5397304;26;2234;-39
2024/04/10 04:36:31;;;;;;;;;;;16.90;34.70;18.50;99264.00;;;;5406131;26;2200;-38
2024/04/10 04:39:01;;;;;;;;;;;16.90;35.20;18.50;99277.00;;;;5404406;26;1977;-39
2024/04/10 04:41:28;;;;;;;;;;;16.90;34.50;18.50;99291.00;;;;5415404;26;2327;-39
2024/04/10 04:43:58;;;;;;;;;;;16.90;34.30;18.50;99288.00;;;;5412283;26;2329;-39
2024/04/10 04:46:26;;;;;;;;;;;17.00;34.30;18.60;99291.00;;;;5398236;26;1904;-40
2024/04/10 04:48:55;;;;;;;;;;;17.00;34.20;18.60;99296.00;;;;5412189;26;2216;-39
2024/04/10 04:51:23;;;;;;;;;;;17.00;34.00;18.60;99305.00;;;;5412596;26;2177;-40
2024/04/10 04:53:55;;;;;;;;;;;17.00;34.00;18.50;99311.00;;;;5405403;26;2328;-40
2024/04/10 04:56:22;;;;;;;;;;;16.90;34.30;18.50;99306.00;;;;5404551;26;2098;-39
2024/04/10 04:58:52;;;;;;;;;;;16.90;34.80;18.40;99306.00;;;;5404159;26;2158;-39
2024/04/10 05:01:21;;;;;;;;;;;16.80;34.90;18.40;99312.00;;;;5397157;26;2381;-39
2024/04/10 05:06:36;;;;;;;;;;;16.70;35.50;18.30;99320.00;;;;5412227;26;2087;-39
2024/04/10 05:09:38;;;;;;;;;;;16.70;35.80;18.30;99324.00;;;;5399426;26;2187;-39
2024/04/10 05:12:06;;;;;;;;;;;16.70;35.40;18.40;99333.00;;;;5415822;26;2274;-39
2024/04/10 05:14:36;;;;;;;;;;;16.80;35.30;18.40;99333.00;;;;5408475;26;2335;-38
2024/04/10 05:17:03;;;;;;;;;;;16.80;35.00;18.40;99337.00;;;;5416255;26;2266;-38
2024/04/10 05:19:33;;;;;;;;;;;16.80;34.80;18.40;99350.00;;;;5391415;26;2179;-39
2024/04/10 05:22:01;;;;;;;;;;;16.80;34.60;18.50;99350.00;;;;5419702;26;2200;-39
2024/04/10 05:24:31;;;;;;;;;;;16.80;35.10;18.50;99362.00;;;;5415557;26;2335;-39
2024/04/10 05:27:04;;;;;;;;;;;16.90;34.40;18.50;99361.00;;;;5412934;26;2039;-40
2024/04/10 05:29:34;;;;;;;;;;;16.90;34.20;18.40;99368.00;;;;5402510;26;2299;-39
2024/04/10 05:32:02;;;;;;;;;;;16.80;34.50;18.40;99370.00;;;;5416268;26;2261;-39
2024/04/10 05:34:32;;;;;;;;;;;16.80;35.00;18.40;99368.00;;;;5412022;26;2421;-40
2024/04/10 05:36:59;;;;;;;;;;;16.80;35.30;18.40;99369.00;;;;5419150;26;2331;-39
2024/04/10 05:39:29;;;;;;;;;;;16.80;34.90;18.40;99377.00;;;;5409409;26;2277;-39
2024/04/10 05:41:56;;;;;;;;;;;16.80;34.80;18.40;99381.00;;;;5408355;26;2188;-40
2024/04/10 05:44:29;;;;;;;;;;;16.80;34.60;18.50;99380.00;;;;5411227;26;2405;-40
2024/04/10 05:46:56;;;;;;;;;;;16.90;34.50;18.50;99389.00;;;;5404886;26;2284;-39
2024/04/10 05:49:26;;;;;;;;;;;16.90;34.40;18.50;99391.00;;;;5418012;26;2204;-40
2024/04/10 05:51:53;;;;;;;;;;;16.90;34.20;18.50;99396.00;;;;5419363;26;2314;-40
2024/04/10 05:54:23;;;;;;;;;;;16.90;34.20;18.60;99409.00;;;;5409619;26;2154;-40
2024/04/10 05:56:51;;;;;;;;;;;16.90;34.00;18.50;99402.00;;;;5416449;26;2340;-39
2024/04/10 05:59:21;;;;;;;;;;;16.90;34.20;18.50;99404.00;;;;5404553;26;1886;-39
2024/04/10 06:01:51;;;;;;;;;;;16.90;34.60;18.40;99400.00;;;;5406988;26;2256;-39
2024/04/10 06:04:21;;;;;;;;;;;16.80;35.00;18.50;99414.00;;;;5419219;26;2156;-39
2024/04/10 06:06:49;;;;;;;;;;;16.80;34.90;18.50;99415.00;;;;5406540;26;2400;-39
2024/04/10 06:09:18;;;;;;;;;;;16.80;34.60;18.50;99416.00;;;;5409562;26;2213;-39
2024/04/10 06:11:46;;;;;;;;;;;16.80;34.40;18.50;99426.00;;;;5414897;26;1994;-39
2024/04/10 06:14:16;;;;;;;;;;;16.90;34.40;18.50;99428.00;;;;5415242;26;3239;-39
2024/04/10 06:16:43;;;;;;;;;;;16.90;34.20;18.50;99433.00;;;;5415053;26;2348;-38
2024/04/10 06:19:16;;;;;;;;;;;16.90;34.20;18.50;99441.00;;;;5401117;26;2346;-39
2024/04/10 06:21:43;;;;;;;;;;;16.90;34.00;18.50;99439.00;;;;5397552;26;2289;-39
2024/04/10 06:24:13;;;;;;;;;;;16.90;33.90;18.50;99438.00;;;;5419076;26;2275;-39
2024/04/10 06:26:40;;;;;;;;;;;16.90;33.90;18.50;99445.00;;;;5406520;26;2267;-39
2024/04/10 06:29:10;;;;;;;;;;;16.90;34.20;18.40;99445.00;;;;5411404;26;2192;-39
2024/04/10 06:31:38;;;;;;;;;;;16.80;34.60;18.40;99451.00;;;;5410403;26;2000;-39
2024/04/10 06:34:08;;;;;;;;;;;16.80;34.80;18.50;99451.00;;;;5415875;26;2042;-39
2024/04/10 06:36:38;;;;;;;;;;;16.80;34.70;18.50;99449.00;;;;5402501;26;2043;-38
2024/04/10 06:39:10;;;;;;;;;;;16.80;34.50;18.50;99459.00;;;;5406795;26;2016;-39
2024/04/10 06:41:40;;;;;;;;;;;16.80;34.30;18.50;99456.00;;;;5410552;26;2239;-40
2024/04/10 06:44:07;;;;;;;;;;;16.90;34.20;18.50;99466.00;;;;5411892;26;2064;-39
2024/04/10 06:46:38;;;;;;;;;;;16.90;34.10;18.50;99476.00;;;;5402587;26;2263;-38
2024/04/10 06:49:05;;;;;;;;;;;16.90;34.00;18.50;99481.00;;;;5414453;26;1983;-39
2024/04/10 06:51:37;;;;;;;;;;;16.90;33.90;18.60;99484.00;;;;5397313;26;2358;-40
2024/04/10 06:54:06;;;;;;;;;;;16.90;34.40;18.50;99474.00;;;;5414960;26;2387;-39
2024/04/10 06:56:36;;;;;;;;;;;16.90;33.90;18.50;99483.00;;;;5414283;26;1517;-39
2024/04/10 06:59:04;;;;;;;;;;;16.90;34.40;18.50;99483.00;;;;5413205;26;2324;-39
2024/04/10 07:01:33;;;;;;;;;;;16.80;34.80;18.40;99490.00;;;;5407329;26;2363;-39
2024/04/10 07:04:01;;;;;;;;;;;16.80;35.00;18.40;99489.00;;;;5415119;26;2225;-39
2024/04/10 07:06:31;;;;;;;;;;;16.70;35.20;18.30;99486.00;;;;5401919;26;2267;-39
2024/04/10 07:08:58;;;;;;;;;;;16.70;35.50;18.30;99491.00;;;;5405778;26;2193;-38
2024/04/10 07:11:31;;;;;;;;;;;16.70;35.50;18.40;99496.00;;;;5412510;26;1915;-38
2024/04/10 07:14:01;;;;;;;;;;;16.70;35.10;18.40;99502.00;;;;5414810;26;2260;-40
2024/04/10 07:16:32;;;;;;;;;;;16.80;35.00;18.40;99504.00;;;;5409986;26;1580;-39
2024/04/10 07:18:59;;;;;;;;;;;16.80;34.80;18.40;99507.00;;;;5422732;26;2190;-39
2024/04/10 07:21:29;;;;;;;;;;;16.80;34.60;18.50;99499.00;;;;5410600;26;2083;-39
2024/04/10 07:23:57;;;;;;;;;;;16.80;34.40;18.50;99509.00;;;;5405447;26;2310;-39
2024/04/10 07:26:33;;;;;;;;;;;16.90;34.30;18.50;99509.00;;;;5399918;26;1486;-39
2024/04/10 07:29:00;;;;;;;;;;;16.90;34.20;18.50;99512.00;;;;5416972;26;2156;-40
2024/04/10 07:31:31;;;;;;;;;;;16.90;34.10;18.50;99505.00;;;;5408930;26;2354;-40
2024/04/10 07:34:00;;;;;;;;;;;16.90;34.60;18.50;99515.00;;;;5417838;26;2185;-39
2024/04/10 07:36:31;;;;;;;;;;;16.80;34.90;18.40;99515.00;;;;5404212;26;2142;-39
2024/04/10 07:39:02;;;;;;;;;;;16.80;35.10;18.50;99512.00;;;;5403904;26;2402;-38
2024/04/10 07:41:35;;;;;;;;;;;16.80;34.80;18.50;99514.00;;;;5411710;26;2127;-38
2024/04/10 07:44:05;;;;;;;;;;;16.80;34.60;18.50;99528.00;;;;5410157;26;2202;-39
2024/04/10 07:46:34;;;;;;;;;;;16.90;34.40;18.50;99525.00;;;;5405368;26;2206;-39
2024/04/10 07:49:02;;;;;;;;;;;16.90;34.30;18.60;99535.00;;;;5413166;26;2047;-40
2024/04/10 07:51:33;;;;;;;;;;;16.90;34.20;18.60;99534.00;;;;5407427;26;2374;-39
2024/04/10 07:54:00;;;;;;;;;;;17.00;34.20;18.60;99535.00;;;;5410118;26;2365;-39
2024/04/10 07:56:30;;;;;;;;;;;17.00;34.00;18.60;99536.00;;;;5397573;26;2034;-39
2024/04/10 07:59:00;;;;;;;;;;;17.00;34.00;18.60;99533.00;;;;5403230;26;2165;-38
2024/04/10 08:01:31;;;;;;;;;;;17.00;34.20;18.60;99551.00;;;;5405030;26;2286;-39
2024/04/10 08:04:02;;;;;;;;;;;16.90;34.60;18.50;99541.00;;;;5406065;26;2165;-39
2024/04/10 08:06:36;;;;;;;;;;;16.90;35.00;18.50;99551.00;;;;5406056;26;2186;-39
2024/04/10 08:09:04;;;;;;;;;;;16.90;34.70;18.60;99563.00;;;;5408291;26;2990;-39
2024/04/10 08:11:34;;;;;;;;;;;16.90;34.50;18.60;99564.00;;;;5399556;26;2014;-39
2024/04/10 08:14:04;;;;;;;;;;;16.90;34.40;18.60;99566.00;;;;5414468;26;2363;-39
2024/04/10 08:16:35;;;;;;;;;;;17.00;34.30;18.60;99582.00;;;;5405470;26;2320;-39
2024/04/10 08:19:03;;;;;;;;;;;17.00;34.10;18.60;99586.00;;;;5414900;26;1591;-39
2024/04/10 08:21:36;;;;;;;;;;;17.00;34.00;18.60;99586.00;;;;5397672;26;2197;-39
2024/04/10 08:24:04;;;;;;;;;;;17.00;33.90;18.70;99596.00;;;;5409167;26;1587;-39
2024/04/10 08:26:34;;;;;;;;;;;17.10;33.80;18.60;99597.00;;;;5402962;26;2119;-39
2024/04/10 08:29:08;;;;;;;;;;;17.00;33.90;18.60;99603.00;;;;5409171;26;2166;-39
2024/04/10 08:31:38;;;;;;;;;;;17.00;34.30;18.60;99610.00;;;;5416125;26;2294;-39
2024/04/10 08:35:42;;;;;;;;;;;17.00;34.90;18.70;99610.00;;;;5634140;25;1679;-38
2024/04/10 08:38:09;;;;;;;;;;;17.00;34.50;18.70;99613.00;;;;5605295;25;1922;-38
2024/04/10 08:40:40;;;;;;;;;;;17.00;34.30;18.70;99629.00;;;;5614943;25;2027;-37
2024/04/10 08:43:08;;;;;;;;;;;17.00;34.20;18.70;99632.00;;;;5615121;25;2326;-38
2024/04/10 08:45:38;;;;;;;;;;;17.00;34.10;18.70;99631.00;;;;5612876;25;1968;-38
2024/04/10 08:48:06;;;;;;;;;;;17.00;34.00;18.70;99634.00;;;;5609468;25;2419;-37
2024/04/10 08:50:36;;;;;;;;;;;17.00;33.90;18.70;99638.00;;;;5609056;25;1998;-37
2024/04/10 08:53:06;;;;;;;;;;;17.10;33.80;18.70;99642.00;;;;5615188;25;2430;-37
2024/04/10 08:55:36;;;;;;;;;;;17.10;33.80;18.70;99638.00;;;;5615204;25;2206;-38
2024/04/10 08:58:15;;;;;;;;;;;17.10;34.10;18.70;99643.00;;;;5608104;25;2429;-37
2024/04/10 09:00:45;;;;;;;;;;;17.00;34.40;18.60;99632.00;;;;5605264;25;2386;-39
2024/04/10 09:03:13;;;;;;;;;;;17.00;34.90;18.60;99641.00;;;;5608777;25;2996;-38
2024/04/10 09:05:43;;;;;;;;;;;16.90;35.10;18.50;99644.00;;;;5613949;25;2319;-37
2024/04/10 09:08:13;;;;;;;;;;;16.90;35.40;18.50;99645.00;;;;5602732;25;2164;-37
2024/04/10 09:10:42;;;;;;;;;;;16.80;35.60;18.60;99651.00;;;;5611636;25;2372;-37
2024/04/10 09:13:11;;;;;;;;;;;16.90;35.30;18.50;99642.00;;;;5613814;25;2134;-38
2024/04/10 09:15:41;;;;;;;;;;;16.90;35.00;18.60;99645.00;;;;5614169;25;2167;-38
2024/04/10 09:18:09;;;;;;;;;;;17.00;34.90;18.60;99643.00;;;;5608139;25;2230;-38
2024/04/10 09:20:39;;;;;;;;;;;17.00;34.60;18.70;99648.00;;;;5614769;25;2159;-37
2024/04/10 09:23:08;;;;;;;;;;;17.00;34.50;18.70;99651.00;;;;5614110;25;2053;-37
2024/04/10 09:25:42;;;;;;;;;;;17.00;34.30;18.70;99652.00;;;;5610000;25;1962;-38
2024/04/10 09:28:11;;;;;;;;;;;17.00;34.20;18.70;99661.00;;;;5613972;25;2457;-38
2024/04/10 09:30:41;;;;;;;;;;;17.10;34.10;18.70;99650.00;;;;5610257;25;2188;-38
2024/04/10 09:33:08;;;;;;;;;;;17.10;34.30;18.70;99654.00;;;;5612862;25;2369;-38
2024/04/10 09:35:39;;;;;;;;;;;17.00;34.50;18.70;99654.00;;;;5614494;25;2206;-37
2024/04/10 09:38:06;;;;;;;;;;;17.00;35.00;18.70;99666.00;;;;5611774;25;2308;-38
2024/04/10 09:40:36;;;;;;;;;;;17.00;34.90;18.70;99667.00;;;;5609210;25;2224;-38
2024/04/10 09:43:06;;;;;;;;;;;17.00;34.50;18.70;99661.00;;;;5609227;25;2294;-37
2024/04/10 09:45:37;;;;;;;;;;;17.00;34.50;18.80;99661.00;;;;5606828;25;2335;-38
2024/04/10 09:48:05;;;;;;;;;;;17.10;34.40;18.80;99663.00;;;;5597048;25;1991;-38
2024/04/10 09:50:37;;;;;;;;;;;17.10;34.20;18.80;99673.00;;;;5597842;25;2121;-38
2024/04/10 09:53:04;;;;;;;;;;;17.10;34.10;18.80;99666.00;;;;5593699;25;2324;-36
2024/04/10 09:55:38;;;;;;;;;;;17.20;34.00;18.80;99666.00;;;;5591446;25;2019;-38
2024/04/10 09:58:08;;;;;;;;;;;17.20;34.00;18.80;99667.00;;;;5597552;25;2207;-37
2024/04/10 10:00:38;;;;;;;;;;;17.20;34.10;18.80;99664.00;;;;5591356;25;1623;-37
2024/04/10 10:03:05;;;;;;;;;;;17.20;34.80;18.90;99667.00;;;;5595496;25;2257;-38
2024/04/10 10:05:35;;;;;;;;;;;17.10;34.90;18.90;99667.00;;;;5589925;25;2472;-38
2024/04/10 10:08:12;;;;;;;;;;;17.10;35.00;18.90;99663.00;;;;5597365;25;2308;-36
2024/04/10 10:10:49;;;;;;;;;;;17.20;34.70;18.90;99666.00;;;;5597308;25;2710;-37
2024/04/10 10:13:28;;;;;;;;;;;17.20;34.50;18.90;99666.00;;;;5589608;25;2323;-37
2024/04/10 10:15:59;;;;;;;;;;;17.20;34.30;19.00;99666.00;;;;5589436;25;2356;-36
2024/04/10 10:18:27;;;;;;;;;;;17.30;34.30;19.00;99669.00;;;;5594180;25;1993;-37
2024/04/10 10:21:07;;;;;;;;;;;17.30;34.10;19.00;99663.00;;;;5596075;25;2415;-37
2024/04/10 10:23:35;;;;;;;;;;;17.30;34.00;19.00;99663.00;;;;5597534;25;2332;-37
2024/04/10 10:26:05;;;;;;;;;;;17.30;33.90;19.00;99666.00;;;;5593852;25;2371;-37
2024/04/10 10:28:35;;;;;;;;;;;17.40;34.00;19.00;99674.00;;;;5596800;25;2238;-38
2024/04/10 10:31:14;;;;;;;;;;;17.40;34.20;19.00;99672.00;;;;5597265;25;1702;-37
2024/04/10 10:33:42;;;;;;;;;;;17.30;34.40;19.00;99678.00;;;;5596379;25;2210;-37
2024/04/10 10:36:12;;;;;;;;;;;17.30;34.60;19.00;99677.00;;;;5591881;25;1832;-37
2024/04/10 10:38:40;;;;;;;;;;;17.30;34.40;19.00;99683.00;;;;5596756;25;2496;-37
2024/04/10 10:41:10;;;;;;;;;;;17.30;34.20;19.10;99683.00;;;;5595666;25;2237;-36
2024/04/10 10:43:48;;;;;;;;;;;17.40;34.20;19.10;99692.00;;;;5591903;25;2065;-37
2024/04/10 10:46:17;;;;;;;;;;;17.40;34.00;19.10;99688.00;;;;5581227;25;2227;-36
2024/04/10 10:48:45;;;;;;;;;;;17.40;34.00;19.10;99692.00;;;;5589477;25;2277;-36
2024/04/10 10:51:15;;;;;;;;;;;17.40;33.80;19.20;99693.00;;;;5593018;25;3120;-37
2024/04/10 10:53:43;;;;;;;;;;;17.40;33.70;19.20;99696.00;;;;5595515;25;1652;-37
2024/04/10 10:56:13;;;;;;;;;;;17.50;33.80;19.20;99691.00;;;;5597021;25;2256;-37
2024/04/10 10:58:40;;;;;;;;;;;17.50;34.60;19.20;99696.00;;;;5587397;25;2374;-37
2024/04/10 11:01:12;;;;;;;;;;;17.40;34.70;19.10;99694.00;;;;5583561;25;2270;-37
2024/04/10 11:03:40;;;;;;;;;;;17.40;34.90;19.10;99680.00;;;;5595078;25;2357;-37
2024/04/10 11:06:10;;;;;;;;;;;17.40;35.10;19.10;99682.00;;;;5596581;25;2166;-37
2024/04/10 11:08:38;;;;;;;;;;;17.30;35.20;19.10;99683.00;;;;5590477;25;2323;-38
2024/04/10 11:11:09;;;;;;;;;;;17.30;35.60;19.10;99683.00;;;;5596491;25;2177;-36
2024/04/10 11:13:49;;;;;;;;;;;17.30;35.20;19.10;99680.00;;;;5593207;25;2213;-37
2024/04/10 11:16:32;;;;;;;;;;;17.40;35.10;19.10;99675.00;;;;5586953;25;2260;-38
2024/04/10 11:19:00;;;;;;;;;;;17.40;34.80;19.10;99683.00;;;;5590030;25;2121;-36
2024/04/10 11:21:29;;;;;;;;;;;17.40;34.60;19.20;99685.00;;;;5592450;25;1964;-37
2024/04/10 11:23:57;;;;;;;;;;;17.40;34.50;19.20;99688.00;;;;5592018;25;1487;-37
2024/04/10 11:26:27;;;;;;;;;;;17.50;34.40;19.20;99688.00;;;;5596411;25;2279;-36
2024/04/10 11:28:54;;;;;;;;;;;17.50;34.20;19.20;99678.00;;;;5595705;25;1973;-37
2024/04/10 11:31:24;;;;;;;;;;;17.50;34.10;19.20;99691.00;;;;5596860;25;2280;-37
2024/04/10 11:33:54;;;;;;;;;;;17.50;34.20;19.20;99690.00;;;;5593500;25;1949;-38
2024/04/10 11:36:24;;;;;;;;;;;17.50;34.20;19.20;99692.00;;;;5596030;25;2244;-38
2024/04/10 11:38:52;;;;;;;;;;;17.50;34.60;19.20;99694.00;;;;5593026;25;2289;-38
2024/04/10 11:41:23;;;;;;;;;;;17.40;34.60;19.20;99695.00;;;;5593989;25;3339;-38
2024/04/10 11:43:50;;;;;;;;;;;17.40;34.50;19.20;99692.00;;;;5596336;25;2187;-37
2024/04/10 11:46:21;;;;;;;;;;;17.40;34.40;19.20;99693.00;;;;5596580;25;2293;-38
2024/04/10 11:48:48;;;;;;;;;;;17.50;34.30;19.20;99697.00;;;;5590570;25;1991;-37
2024/04/10 11:51:21;;;;;;;;;;;17.40;34.10;19.20;99697.00;;;;5596285;25;2180;-37
2024/04/10 11:53:48;;;;;;;;;;;17.50;34.80;19.20;99705.00;;;;5589727;25;1530;-37
2024/04/10 11:56:21;;;;;;;;;;;17.50;34.00;19.20;99706.00;;;;5594481;25;2149;-38
2024/04/10 11:58:49;;;;;;;;;;;17.50;33.90;19.20;99699.00;;;;5594051;25;2332;-37
2024/04/10 12:01:19;;;;;;;;;;;17.50;34.40;19.20;99698.00;;;;5588591;25;2186;-38
2024/04/10 12:03:47;;;;;;;;;;;17.50;34.50;19.20;99707.00;;;;5595372;25;2254;-38
2024/04/10 12:06:17;;;;;;;;;;;17.40;34.70;19.20;99698.00;;;;5594799;25;2171;-38
2024/04/10 12:08:47;;;;;;;;;;;17.40;35.00;19.20;99688.00;;;;5594460;25;2191;-37
2024/04/10 12:11:17;;;;;;;;;;;17.40;34.70;19.20;99696.00;;;;5584949;25;2212;-37
2024/04/10 12:13:45;;;;;;;;;;;17.40;34.50;19.20;99697.00;;;;5593835;25;2301;-37
2024/04/10 12:16:15;;;;;;;;;;;17.40;34.40;19.20;99687.00;;;;5593942;25;2037;-37
2024/04/10 12:18:42;;;;;;;;;;;17.50;34.30;19.20;99689.00;;;;5593242;25;2179;-41
2024/04/10 12:21:12;;;;;;;;;;;17.50;34.20;19.20;99695.00;;;;5594072;25;2111;-37
2024/04/10 12:23:40;;;;;;;;;;;17.50;34.70;19.20;99691.00;;;;5587652;25;2696;-38